createdAt,value
2023-01-28T00:01:18.252Z,102682.34
2023-01-28T00:03:45.124Z,102678.22
2023-01-28T00:06:15.554Z,102684.03
2023-01-28T00:08:45.158Z,102684.13
2023-01-28T00:11:13.394Z,102689.63
2023-01-28T00:13:40.326Z,102691.38
2023-01-28T00:16:09.052Z,102700.91
2023-01-28T00:18:36.423Z,102698.22
2023-01-28T00:21:13.522Z,102697.81
2023-01-28T00:23:41.059Z,102683.31
2023-01-28T00:26:10.921Z,102687.03
2023-01-28T00:28:37.381Z,102682.09
2023-01-28T00:31:17.812Z,102682.56
2023-01-28T00:33:45.347Z,102696.31
2023-01-28T00:36:12.602Z,102689.94
2023-01-28T00:38:39.233Z,102680.03
2023-01-28T00:41:14.560Z,102679.66
2023-01-28T00:43:42.010Z,102669.56
2023-01-28T00:46:10.130Z,102676.97
2023-01-28T00:48:38.938Z,102683.22
2023-01-28T00:51:06.675Z,102681.66
2023-01-28T00:53:34.875Z,102682.47
2023-01-28T00:56:02.274Z,102685.84
2023-01-28T00:58:28.832Z,102681.84
2023-01-28T01:00:55.682Z,102678.94
2023-01-28T01:03:22.858Z,102677.19
2023-01-28T01:05:50.432Z,102675.16
2023-01-28T01:08:17.538Z,102678.06
2023-01-28T01:10:44.832Z,102678.50
2023-01-28T01:13:11.890Z,102693.69
2023-01-28T01:15:38.728Z,102681.31
2023-01-28T01:18:05.785Z,102686.41
2023-01-28T01:20:34.112Z,102690.34
2023-01-28T01:23:00.604Z,102675.34
2023-01-28T01:25:27.974Z,102669.97
2023-01-28T01:27:54.531Z,102671.69
2023-01-28T01:30:21.445Z,102677.09
2023-01-28T01:32:47.902Z,102678.81
2023-01-28T01:35:15.010Z,102674.69
2023-01-28T01:37:44.529Z,102684.50
2023-01-28T01:40:11.551Z,102684.41
2023-01-28T01:42:37.988Z,102667.06
2023-01-28T01:45:07.067Z,102666.63
2023-01-28T01:47:39.260Z,102661.34
2023-01-28T01:50:31.948Z,102665.22
2023-01-28T01:53:03.948Z,102667.00
2023-01-28T01:55:32.441Z,102665.94
2023-01-28T01:58:02.195Z,102672.66
2023-01-28T02:00:28.712Z,102665.47
2023-01-28T02:02:56.718Z,102667.63
2023-01-28T02:05:23.337Z,102663.44
2023-01-28T02:07:52.136Z,102669.97
2023-01-28T02:10:18.665Z,102673.09
2023-01-28T02:12:53.485Z,102666.38
2023-01-28T02:15:21.618Z,102657.22
2023-01-28T02:17:48.534Z,102666.47
2023-01-28T02:20:42.556Z,102655.72
2023-01-28T02:23:37.793Z,102667.72
2023-01-28T02:26:20.266Z,102664.34
2023-01-28T02:29:08.121Z,102657.88
2023-01-28T02:31:40.280Z,102658.28
2023-01-28T02:34:19.996Z,102665.78
2023-01-28T02:37:02.452Z,102664.53
2023-01-28T02:39:57.284Z,102658.13
2023-01-28T02:42:27.026Z,102655.13
2023-01-28T02:44:53.525Z,102656.69
2023-01-28T02:47:38.517Z,102661.72
2023-01-28T02:50:09.078Z,102662.19
2023-01-28T02:53:04.245Z,102655.19
2023-01-28T02:55:37.740Z,102646.53
2023-01-28T02:58:22.903Z,102656.63
2023-01-28T03:00:56.667Z,102652.34
2023-01-28T03:03:49.350Z,102652.13
2023-01-28T03:06:19.413Z,102646.97
2023-01-28T03:09:09.985Z,102649.84
2023-01-28T03:11:59.018Z,102641.50
2023-01-28T03:14:44.734Z,102644.06
2023-01-28T03:17:43.996Z,102650.50
2023-01-28T03:20:29.567Z,102637.53
2023-01-28T03:23:18.296Z,102639.41
2023-01-28T03:26:06.256Z,102642.59
2023-01-28T03:28:52.021Z,102640.59
2023-01-28T03:31:38.685Z,102640.41
2023-01-28T03:34:24.666Z,102644.31
2023-01-28T03:36:51.703Z,102655.66
2023-01-28T03:39:20.161Z,102656.00
2023-01-28T03:42:01.375Z,102651.78
2023-01-28T03:44:46.293Z,102649.03
2023-01-28T03:47:13.233Z,102644.56
2023-01-28T03:49:51.250Z,102649.34
2023-01-28T03:52:20.663Z,102657.66
2023-01-28T03:54:51.987Z,102647.47
2023-01-28T03:57:26.768Z,102648.72
2023-01-28T03:59:53.777Z,102649.16
2023-01-28T04:02:22.192Z,102648.47
2023-01-28T04:04:50.240Z,102646.19
2023-01-28T04:07:17.017Z,102646.13
2023-01-28T04:09:44.142Z,102637.47
2023-01-28T04:12:10.889Z,102640.31
2023-01-28T04:14:37.471Z,102648.72
2023-01-28T04:17:04.011Z,102653.94
2023-01-28T04:19:31.760Z,102652.63
2023-01-28T04:21:58.322Z,102648.78
2023-01-28T04:24:24.883Z,102651.38
2023-01-28T04:26:51.407Z,102650.97
2023-01-28T04:29:17.856Z,102646.50
2023-01-28T04:31:44.324Z,102644.69
2023-01-28T04:34:10.874Z,102655.72
2023-01-28T04:36:37.392Z,102658.41
2023-01-28T04:39:04.048Z,102655.72
2023-01-28T04:41:30.545Z,102647.53
2023-01-28T04:43:57.011Z,102653.94
2023-01-28T04:46:23.490Z,102652.31
2023-01-28T04:48:49.985Z,102647.78
2023-01-28T04:51:16.530Z,102646.25
2023-01-28T04:53:43.006Z,102640.34
2023-01-28T04:56:09.448Z,102630.34
2023-01-28T04:58:35.900Z,102637.53
2023-01-28T05:01:02.499Z,102640.34
2023-01-28T05:03:29.224Z,102651.66
2023-01-28T05:05:55.710Z,102644.78
2023-01-28T05:08:22.592Z,102641.16
2023-01-28T05:10:49.101Z,102639.34
2023-01-28T05:13:15.614Z,102638.06
2023-01-28T05:15:42.091Z,102632.69
2023-01-28T05:18:08.620Z,102628.19
2023-01-28T05:20:35.106Z,102619.34
2023-01-28T05:23:01.603Z,102606.13
2023-01-28T05:25:28.051Z,102599.88
2023-01-28T05:27:54.559Z,102607.28
2023-01-28T05:30:21.979Z,102609.63
2023-01-28T05:32:48.683Z,102622.81
2023-01-28T05:35:15.459Z,102611.03
2023-01-28T05:37:42.206Z,102591.91
2023-01-28T05:40:09.425Z,102589.84
2023-01-28T05:42:35.941Z,102589.88
2023-01-28T05:45:02.404Z,102595.38
2023-01-28T05:47:28.863Z,102581.91
2023-01-28T05:49:55.355Z,102578.56
2023-01-28T05:52:21.815Z,102577.53
2023-01-28T05:54:48.415Z,102576.28
2023-01-28T05:57:14.904Z,102571.63
2023-01-28T05:59:41.375Z,102568.59
2023-01-28T06:02:07.931Z,102564.72
2023-01-28T06:04:34.489Z,102550.75
2023-01-28T06:07:00.991Z,102556.25
2023-01-28T06:09:27.433Z,102578.16
2023-01-28T06:11:53.906Z,102582.91
2023-01-28T06:14:20.378Z,102593.56
2023-01-28T06:16:46.865Z,102586.78
2023-01-28T06:19:13.326Z,102603.69
2023-01-28T06:21:40.089Z,102610.25
2023-01-28T06:24:06.652Z,102620.34
2023-01-28T06:26:33.159Z,102607.16
2023-01-28T06:28:59.609Z,102617.53
2023-01-28T06:31:26.118Z,102606.53
2023-01-28T06:33:52.570Z,102614.75
2023-01-28T06:36:19.119Z,102634.59
2023-01-28T06:38:45.582Z,102641.66
2023-01-28T06:41:12.274Z,102645.94
2023-01-28T06:43:38.714Z,102648.97
2023-01-28T06:46:05.266Z,102653.38
2023-01-28T06:48:32.183Z,102654.88
2023-01-28T06:50:58.622Z,102644.88
2023-01-28T06:53:25.083Z,102647.31
2023-01-28T06:55:51.576Z,102655.47
2023-01-28T06:58:18.075Z,102642.56
2023-01-28T07:00:44.538Z,102644.88
2023-01-28T07:03:11.069Z,102636.97
2023-01-28T07:05:37.573Z,102636.03
2023-01-28T07:08:04.108Z,102644.97
2023-01-28T07:10:30.830Z,102645.22
2023-01-28T07:12:57.381Z,102655.75
2023-01-28T07:15:23.848Z,102660.63
2023-01-28T07:17:50.404Z,102653.31
2023-01-28T07:20:17.623Z,102638.81
2023-01-28T07:22:45.213Z,102643.72
2023-01-28T07:25:13.013Z,102649.50
2023-01-28T07:27:39.621Z,102654.88
2023-01-28T07:30:06.594Z,102651.03
2023-01-28T07:32:33.053Z,102649.09
2023-01-28T07:34:59.501Z,102661.19
2023-01-28T07:37:25.983Z,102658.84
2023-01-28T07:39:52.443Z,102664.25
2023-01-28T07:42:19.031Z,102661.00
2023-01-28T07:44:45.509Z,102658.06
2023-01-28T07:47:12.192Z,102654.72
2023-01-28T07:49:41.544Z,102669.22
2023-01-28T07:52:08.571Z,102657.44
2023-01-28T07:54:35.167Z,102656.53
2023-01-28T07:57:01.868Z,102644.75
2023-01-28T07:59:28.397Z,102652.56
2023-01-28T08:01:55.220Z,102643.47
2023-01-28T08:04:22.140Z,102641.69
2023-01-28T08:06:48.789Z,102652.97
2023-01-28T08:09:15.307Z,102642.81
2023-01-28T08:11:42.438Z,102657.81
2023-01-28T08:14:10.708Z,102657.41
2023-01-28T08:16:37.161Z,102654.16
2023-01-28T08:19:03.789Z,102664.19
2023-01-28T08:21:30.443Z,102670.84
2023-01-28T08:23:57.160Z,102669.66
2023-01-28T08:26:23.701Z,102681.63
2023-01-28T08:28:51.597Z,102690.13
2023-01-28T08:31:18.368Z,102683.28
2023-01-28T08:33:44.920Z,102687.97
2023-01-28T08:36:11.429Z,102693.16
2023-01-28T08:38:38.659Z,102689.81
2023-01-28T08:41:05.172Z,102696.63
2023-01-28T08:43:31.697Z,102690.53
2023-01-28T08:45:58.256Z,102688.56
2023-01-28T08:48:24.775Z,102705.25
2023-01-28T08:50:51.220Z,102705.59
2023-01-28T08:53:19.851Z,102699.44
2023-01-28T08:55:47.140Z,102712.22
2023-01-28T08:58:16.476Z,102720.13
2023-01-28T09:00:44.032Z,102715.88
2023-01-28T09:03:11.230Z,102722.09
2023-01-28T09:05:38.849Z,102706.03
2023-01-28T09:08:08.346Z,102710.50
2023-01-28T09:10:34.964Z,102711.47
2023-01-28T09:13:08.972Z,102721.41
2023-01-28T09:15:35.843Z,102721.16
2023-01-28T09:18:02.377Z,102707.50
2023-01-28T09:20:28.863Z,102686.34
2023-01-28T09:22:55.556Z,102692.28
2023-01-28T09:25:22.073Z,102699.09
2023-01-28T09:27:48.604Z,102692.31
2023-01-28T09:30:15.639Z,102678.59
2023-01-28T09:32:42.238Z,102675.13
2023-01-28T09:35:09.100Z,102674.03
2023-01-28T09:37:35.599Z,102660.84
2023-01-28T09:40:05.659Z,102663.28
2023-01-28T09:42:37.986Z,102659.72
2023-01-28T09:45:25.735Z,102666.00
2023-01-28T09:47:54.636Z,102670.56
2023-01-28T09:50:31.523Z,102678.31
2023-01-28T09:53:03.179Z,102676.66
2023-01-28T09:55:38.397Z,102676.06
2023-01-28T09:58:12.123Z,102678.97
2023-01-28T10:00:44.908Z,102671.22
2023-01-28T10:03:32.710Z,102685.91
2023-01-28T10:06:37.003Z,102683.00
2023-01-28T10:09:22.328Z,102677.63
2023-01-28T10:11:53.911Z,102673.34
2023-01-28T10:14:20.358Z,102664.09
2023-01-28T10:16:50.858Z,102658.59
2023-01-28T10:19:24.053Z,102648.94
2023-01-28T10:21:56.161Z,102647.34
2023-01-28T10:24:42.030Z,102629.31
2023-01-28T10:27:19.707Z,102614.88
2023-01-28T10:29:49.933Z,102610.50
2023-01-28T10:32:39.015Z,102606.28
2023-01-28T10:35:05.794Z,102616.25
2023-01-28T10:37:34.881Z,102605.72
2023-01-28T10:40:03.102Z,102603.44
2023-01-28T10:42:34.829Z,102589.47
2023-01-28T10:45:19.419Z,102570.09
2023-01-28T10:47:50.628Z,102566.38
2023-01-28T10:50:25.877Z,102571.00
2023-01-28T10:52:59.579Z,102557.28
2023-01-28T10:55:29.624Z,102578.94
2023-01-28T10:57:56.263Z,102583.91
2023-01-28T11:00:28.284Z,102575.09
2023-01-28T11:02:55.255Z,102574.78
2023-01-28T11:05:30.525Z,102576.03
2023-01-28T11:08:27.563Z,102567.94
2023-01-28T11:10:55.099Z,102558.16
2023-01-28T11:13:24.238Z,102571.00
2023-01-28T11:16:05.652Z,102574.72
2023-01-28T11:18:46.685Z,102582.06
2023-01-28T11:21:22.268Z,102573.88
2023-01-28T11:24:22.291Z,102591.09
2023-01-28T11:26:51.079Z,102603.28
2023-01-28T11:29:33.132Z,102595.91
2023-01-28T11:32:00.698Z,102590.94
2023-01-28T11:34:34.834Z,102571.69
2023-01-28T11:37:03.961Z,102578.72
2023-01-28T11:39:30.748Z,102571.44
2023-01-28T11:42:18.925Z,102563.13
2023-01-28T11:44:46.955Z,102557.66
2023-01-28T11:47:22.453Z,102553.53
2023-01-28T11:50:05.543Z,102556.50
2023-01-28T11:53:06.591Z,102552.84
2023-01-28T11:55:55.225Z,102565.84
2023-01-28T11:58:41.726Z,102568.47
2023-01-28T12:01:46.959Z,102559.28
2023-01-28T12:04:31.910Z,102547.44
2023-01-28T12:07:42.957Z,102526.44
2023-01-28T12:10:17.141Z,102524.47
2023-01-28T12:13:08.652Z,102522.84
2023-01-28T12:16:06.077Z,102506.78
2023-01-28T12:18:42.287Z,102494.56
2023-01-28T12:21:28.822Z,102497.44
2023-01-28T12:24:33.011Z,102497.81
2023-01-28T12:27:10.489Z,102504.75
2023-01-28T12:29:52.069Z,102507.38
2023-01-28T12:32:39.328Z,102515.66
2023-01-28T12:35:22.624Z,102505.00
2023-01-28T12:38:07.386Z,102499.50
2023-01-28T12:41:19.067Z,102500.84
2023-01-28T12:43:59.808Z,102494.25
2023-01-28T12:46:37.197Z,102494.59
2023-01-28T12:49:08.416Z,102480.38
2023-01-28T12:51:42.107Z,102490.44
2023-01-28T12:54:58.593Z,102488.22
2023-01-28T12:57:30.007Z,102482.94
2023-01-28T13:00:24.539Z,102486.72
2023-01-28T13:03:11.743Z,102491.69
2023-01-28T13:05:46.030Z,102496.03
2023-01-28T13:08:20.862Z,102498.06
2023-01-28T13:10:47.721Z,102502.50
2023-01-28T13:13:26.143Z,102499.03
2023-01-28T13:15:52.727Z,102498.66
2023-01-28T13:18:40.607Z,102498.31
2023-01-28T13:21:30.562Z,102496.06
2023-01-28T13:24:01.956Z,102507.88
2023-01-28T13:26:36.665Z,102511.63
2023-01-28T13:29:19.350Z,102509.56
2023-01-28T13:31:50.529Z,102495.84
2023-01-28T13:34:33.394Z,102490.31
2023-01-28T13:37:25.115Z,102502.91
2023-01-28T13:39:54.084Z,102501.09
2023-01-28T13:42:23.517Z,102489.19
2023-01-28T13:44:50.549Z,102502.53
2023-01-28T13:47:50.780Z,102494.25
2023-01-28T13:50:21.366Z,102491.19
2023-01-28T13:52:57.178Z,102480.34
2023-01-28T13:55:43.504Z,102485.41
2023-01-28T13:58:32.094Z,102478.78
2023-01-28T14:01:20.531Z,102464.19
2023-01-28T14:03:54.072Z,102460.47
2023-01-28T14:06:34.670Z,102452.47
2023-01-28T14:09:10.800Z,102451.97
2023-01-28T14:11:59.266Z,102460.72
2023-01-28T14:14:34.739Z,102462.88
2023-01-28T14:17:14.039Z,102469.75
2023-01-28T14:19:40.689Z,102473.53
2023-01-28T14:22:08.479Z,102483.53
2023-01-28T14:24:37.292Z,102490.59
2023-01-28T14:27:23.152Z,102495.19
2023-01-28T14:30:04.928Z,102483.44
2023-01-28T14:32:31.899Z,102479.38
2023-01-28T14:35:02.019Z,102476.91
2023-01-28T14:37:30.688Z,102468.25
2023-01-28T14:40:06.324Z,102472.34
2023-01-28T14:42:43.347Z,102462.91
2023-01-28T14:45:23.781Z,102468.22
2023-01-28T14:48:11.277Z,102480.06
2023-01-28T14:50:49.893Z,102491.88
2023-01-28T14:53:37.819Z,102499.50
2023-01-28T14:56:36.655Z,102469.97
2023-01-28T14:59:18.395Z,102462.72
2023-01-28T15:01:46.759Z,102449.91
2023-01-28T15:04:33.600Z,102448.69
2023-01-28T15:07:18.338Z,102440.84
2023-01-28T15:09:45.392Z,102450.69
2023-01-28T15:12:12.581Z,102449.78
2023-01-28T15:14:40.252Z,102446.09
2023-01-28T15:17:06.978Z,102439.72
2023-01-28T15:19:35.733Z,102444.78
2023-01-28T15:22:05.204Z,102450.47
2023-01-28T15:24:34.288Z,102454.28
2023-01-28T15:27:01.423Z,102466.44
2023-01-28T15:29:33.221Z,102474.81
2023-01-28T15:32:00.290Z,102475.50
2023-01-28T15:34:32.885Z,102465.28
2023-01-28T15:37:00.643Z,102463.78
2023-01-28T15:39:28.755Z,102453.78
2023-01-28T15:41:58.852Z,102457.03
2023-01-28T15:44:29.936Z,102466.97
2023-01-28T15:46:58.148Z,102459.50
2023-01-28T15:49:29.165Z,102472.94
2023-01-28T15:51:56.053Z,102453.34
2023-01-28T15:54:23.633Z,102448.28
2023-01-28T15:56:50.200Z,102444.41
2023-01-28T15:59:16.612Z,102436.59
2023-01-28T16:01:43.408Z,102442.63
2023-01-28T16:04:25.106Z,102439.16
2023-01-28T16:06:52.268Z,102441.94
2023-01-28T16:09:27.863Z,102451.28
2023-01-28T16:12:11.478Z,102452.78
2023-01-28T16:15:06.745Z,102455.00
2023-01-28T16:17:42.003Z,102449.75
2023-01-28T16:20:24.735Z,102444.50
2023-01-28T16:22:52.149Z,102440.56
2023-01-28T16:25:22.042Z,102437.47
2023-01-28T16:27:50.559Z,102432.91
2023-01-28T16:30:17.517Z,102434.19
2023-01-28T16:32:44.586Z,102439.38
2023-01-28T16:35:47.385Z,102450.25
2023-01-28T16:38:19.541Z,102451.47
2023-01-28T16:40:47.138Z,102453.06
2023-01-28T16:43:15.107Z,102442.53
2023-01-28T16:45:42.374Z,102445.22
2023-01-28T16:48:08.877Z,102446.09
2023-01-28T16:50:39.104Z,102453.63
2023-01-28T16:53:17.551Z,102457.34
2023-01-28T16:55:44.055Z,102454.03
2023-01-28T17:01:51.448Z,102435.50
2023-01-28T17:04:17.931Z,102435.81
2023-01-28T17:06:45.241Z,102440.44
2023-01-28T17:09:13.748Z,102434.91
2023-01-28T17:11:40.936Z,102442.22
2023-01-28T17:14:08.016Z,102439.16
2023-01-28T17:16:34.810Z,102447.00
2023-01-28T17:19:01.575Z,102448.66
2023-01-28T17:21:28.060Z,102448.16
2023-01-28T17:23:54.593Z,102447.41
2023-01-28T17:26:21.317Z,102452.97
2023-01-28T17:28:54.539Z,102455.16
2023-01-28T17:31:21.969Z,102442.50
2023-01-28T17:33:54.263Z,102449.66
2023-01-28T17:36:22.221Z,102442.25
2023-01-28T17:38:48.752Z,102438.56
2023-01-28T17:41:17.247Z,102442.75
2023-01-28T17:43:44.077Z,102441.94
2023-01-28T17:46:12.616Z,102449.59
2023-01-28T17:48:39.666Z,102454.28
2023-01-28T17:51:06.794Z,102467.56
2023-01-28T17:53:33.452Z,102458.81
2023-01-28T17:56:03.235Z,102453.16
2023-01-28T17:58:30.117Z,102452.16
2023-01-28T18:00:56.788Z,102458.72
2023-01-28T18:03:23.327Z,102466.25
2023-01-28T18:05:59.520Z,102473.13
2023-01-28T18:08:26.363Z,102485.47
2023-01-28T18:10:52.906Z,102479.28
2023-01-28T18:13:19.367Z,102468.66
2023-01-28T18:15:45.837Z,102465.47
2023-01-28T18:18:12.330Z,102458.00
2023-01-28T18:20:38.879Z,102458.44
2023-01-28T18:23:05.358Z,102452.28
2023-01-28T18:25:31.814Z,102451.47
2023-01-28T18:27:58.335Z,102447.41
2023-01-28T18:30:28.516Z,102447.00
2023-01-28T18:32:55.085Z,102442.06
2023-01-28T18:35:21.600Z,102445.72
2023-01-28T18:37:48.034Z,102443.56
2023-01-28T18:40:14.500Z,102432.13
2023-01-28T18:42:41.150Z,102433.00
2023-01-28T18:45:18.179Z,102432.38
2023-01-28T18:47:44.815Z,102435.56
2023-01-28T18:50:11.277Z,102437.34
2023-01-28T18:52:37.795Z,102429.22
2023-01-28T18:55:04.544Z,102419.00
2023-01-28T18:57:30.990Z,102429.63
2023-01-28T18:59:57.438Z,102421.06
2023-01-28T19:02:23.936Z,102424.13
2023-01-28T19:04:50.567Z,102421.44
2023-01-28T19:07:17.107Z,102422.25
2023-01-28T19:09:44.331Z,102419.31
2023-01-28T19:12:11.293Z,102414.09
2023-01-28T19:14:37.746Z,102410.56
2023-01-28T19:17:04.562Z,102412.94
2023-01-28T19:19:31.003Z,102419.06
2023-01-28T19:22:01.618Z,102416.91
2023-01-28T19:24:28.700Z,102416.00
2023-01-28T19:26:55.277Z,102406.56
2023-01-28T19:29:21.729Z,102402.31
2023-01-28T19:31:49.545Z,102408.34
2023-01-28T19:34:16.452Z,102413.34
2023-01-28T19:36:43.004Z,102423.06
2023-01-28T19:39:09.745Z,102423.63
2023-01-28T19:41:36.610Z,102413.91
2023-01-28T19:44:20.327Z,102419.31
2023-01-28T19:46:47.130Z,102408.66
2023-01-28T19:49:14.207Z,102409.94
2023-01-28T19:51:40.779Z,102403.00
2023-01-28T19:54:07.319Z,102402.81
2023-01-28T19:56:36.128Z,102401.13
2023-01-28T19:59:02.803Z,102395.84
2023-01-28T20:01:30.538Z,102387.25
2023-01-28T20:03:59.407Z,102385.94
2023-01-28T20:06:28.011Z,102387.81
2023-01-28T20:09:06.191Z,102382.94
2023-01-28T20:11:32.647Z,102384.50
2023-01-28T20:13:59.919Z,102382.59
2023-01-28T20:16:29.347Z,102378.19
2023-01-28T20:19:01.258Z,102387.50
2023-01-28T20:21:29.517Z,102382.94
2023-01-28T20:23:57.358Z,102363.63
2023-01-28T20:26:31.242Z,102364.97
2023-01-28T20:29:01.394Z,102371.16
2023-01-28T20:31:27.945Z,102363.56
2023-01-28T20:33:54.537Z,102363.72
2023-01-28T20:36:20.972Z,102357.47
2023-01-28T20:38:47.908Z,102365.16
2023-01-28T20:41:22.347Z,102361.75
2023-01-28T20:43:50.656Z,102367.59
2023-01-28T20:46:25.373Z,102363.25
2023-01-28T20:48:53.504Z,102341.78
2023-01-28T20:51:21.890Z,102350.81
2023-01-28T20:53:49.436Z,102338.72
2023-01-28T20:56:19.456Z,102345.91
2023-01-28T20:58:46.732Z,102348.38
2023-01-28T21:01:27.596Z,102348.13
2023-01-28T21:03:54.127Z,102355.50
2023-01-28T21:06:20.703Z,102358.09
2023-01-28T21:08:47.199Z,102362.75
2023-01-28T21:11:13.990Z,102355.81
2023-01-28T21:13:40.997Z,102346.63
2023-01-28T21:16:08.030Z,102352.78
2023-01-28T21:18:34.774Z,102343.63
2023-01-28T21:21:10.193Z,102344.81
2023-01-28T21:23:38.665Z,102347.38
2023-01-28T21:26:06.546Z,102343.63
2023-01-28T21:28:34.090Z,102341.91
2023-01-28T21:31:25.389Z,102336.59
2023-01-28T21:33:54.889Z,102326.69
2023-01-28T21:36:22.155Z,102332.16
2023-01-28T21:38:57.115Z,102332.13
2023-01-28T21:41:23.912Z,102340.97
2023-01-28T21:43:53.456Z,102338.06
2023-01-28T21:46:25.619Z,102341.41
2023-01-28T21:48:59.633Z,102346.84
2023-01-28T21:51:35.645Z,102357.13
2023-01-28T21:54:31.173Z,102358.34
2023-01-28T21:56:57.673Z,102340.69
2023-01-28T21:59:43.050Z,102341.75
2023-01-28T22:02:11.515Z,102352.63
2023-01-28T22:04:39.635Z,102352.94
2023-01-28T22:07:08.733Z,102349.88
2023-01-28T22:09:35.484Z,102350.94
2023-01-28T22:12:06.894Z,102344.41
2023-01-28T22:14:37.356Z,102343.63
2023-01-28T22:17:04.970Z,102334.03
2023-01-28T22:19:31.549Z,102323.06
2023-01-28T22:21:58.090Z,102312.41
2023-01-28T22:24:25.502Z,102322.44
2023-01-28T22:26:53.216Z,102308.28
2023-01-28T22:29:20.869Z,102308.53
2023-01-28T22:31:50.036Z,102309.28
2023-01-28T22:34:18.005Z,102309.44
2023-01-28T22:36:44.585Z,102298.31
2023-01-28T22:39:16.144Z,102294.09
2023-01-28T22:41:44.009Z,102284.09
2023-01-28T22:44:10.836Z,102283.84
2023-01-28T22:46:37.784Z,102280.00
2023-01-28T22:49:05.366Z,102271.56
2023-01-28T22:51:34.686Z,102281.06
2023-01-28T22:54:01.605Z,102279.00
2023-01-28T22:56:29.493Z,102276.78
2023-01-28T22:58:57.367Z,102282.34
2023-01-28T23:01:24.147Z,102284.31
2023-01-28T23:03:51.717Z,102281.78
2023-01-28T23:06:20.723Z,102287.50
2023-01-28T23:08:48.142Z,102284.63
2023-01-28T23:11:15.568Z,102277.53
2023-01-28T23:14:01.593Z,102275.38
2023-01-28T23:16:48.245Z,102277.81
2023-01-28T23:19:34.039Z,102292.03
2023-01-28T23:22:19.225Z,102300.31
2023-01-28T23:24:45.701Z,102302.16
2023-01-28T23:27:12.204Z,102296.75
2023-01-28T23:29:38.703Z,102307.31
2023-01-28T23:32:08.428Z,102288.91
2023-01-28T23:34:37.357Z,102302.75
2023-01-28T23:37:06.111Z,102301.59
2023-01-28T23:39:32.706Z,102298.16
2023-01-28T23:41:59.173Z,102300.56
2023-01-28T23:44:28.778Z,102302.50
2023-01-28T23:46:56.394Z,102304.28
2023-01-28T23:49:23.033Z,102302.16
2023-01-28T23:51:50.007Z,102302.16
2023-01-28T23:54:17.540Z,102295.41
2023-01-28T23:56:44.140Z,102291.47
2023-01-28T23:59:10.596Z,102283.41
